Tabas, Iran
Current Conditions -  °F | °C
As of 10:00 AM on Monday 22 Dec 2014 (Local Time) from OIMB Reporting Station
Scattered Clouds Scattered Clouds  
Wind Chill:   Ceiling: Unl
Heat Index:   Visibility: 6mi
Dew Point:   Wind: 7mph
Humidity: 66%   Direction: 200°SSW
Pressure: 30"   Gusts: NA
Location:  33.59°N, 56.92°E
Report Text: OIMB 220700Z 20006KT 9999 FEW030CB SCT035 SCT090 07/01 Q1016
Loading
Personal Weather Stations






























Interactive Weather Map New forecast layout! Learn more

10-Day Weather Forecast

Advertisements
Track Severe Weather on mobile